Time;durP1;ratioP1;P1;durP2;ratioP2;P2;SDS_P1;SDS_P2;PMS_P1;PMS_P2;Temp;Humidity;BMP_temperature;BMP_pressure;BME280_temperature;BME280_humidity;BME280_pressure;Samples;Min_cycle;Max_cycle;Signal;HPM_P1;HPM_P2
2021/12/01 00:01:41;;;;;;;28.77;18.27;;;;;;;;;;5071294;28;20024;-70
2021/12/01 00:04:07;;;;;;;24.58;17.17;;;;;;;;;;5073131;28;20033;-70
2021/12/01 00:06:32;;;;;;;23.63;17.08;;;;;;;;;;5055400;28;20058;-70
2021/12/01 00:08:58;;;;;;;25.17;16.67;;;;;;;;;;5071762;28;20044;-71
2021/12/01 00:11:23;;;;;;;22.83;16.10;;;;;;;;;;5073352;28;20041;-71
2021/12/01 00:13:49;;;;;;;19.50;14.27;;;;;;;;;;5072947;28;20037;-70
2021/12/01 00:16:14;;;;;;;18.70;12.70;;;;;;;;;;5071684;28;20398;-69
2021/12/01 00:18:40;;;;;;;18.90;11.95;;;;;;;;;;5071642;28;20033;-70
2021/12/01 00:21:05;;;;;;;18.10;12.52;;;;;;;;;;5072820;28;20240;-70
2021/12/01 00:23:32;;;;;;;17.13;11.48;;;;;;;;;;5072620;28;20033;-70
2021/12/01 00:25:58;;;;;;;15.90;10.77;;;;;;;;;;5073070;28;20032;-69
2021/12/01 00:28:23;;;;;;;18.83;11.77;;;;;;;;;;5072704;28;20082;-70
2021/12/01 00:30:50;;;;;;;18.60;11.88;;;;;;;;;;5072677;28;20475;-70
2021/12/01 00:33:22;;;;;;;17.42;12.10;;;;;;;;;;5072733;28;20467;-70
2021/12/01 00:35:54;;;;;;;16.23;10.82;;;;;;;;;;5072938;28;20040;-70
2021/12/01 00:38:20;;;;;;;16.00;11.75;;;;;;;;;;5071439;28;20043;-70
2021/12/01 00:40:46;;;;;;;20.52;12.40;;;;;;;;;;5072471;28;20037;-71
2021/12/01 00:43:16;;;;;;;16.40;9.98;;;;;;;;;;5072548;28;20075;-70
2021/12/01 00:45:49;;;;;;;15.27;10.15;;;;;;;;;;5072741;28;20120;-71
2021/12/01 00:48:16;;;;;;;14.88;9.75;;;;;;;;;;5071503;28;20045;-70
2021/12/01 00:50:41;;;;;;;14.63;9.45;;;;;;;;;;5071059;28;20028;-70
2021/12/01 00:53:11;;;;;;;15.68;10.38;;;;;;;;;;5071025;28;20364;-70
2021/12/01 00:55:36;;;;;;;14.75;9.45;;;;;;;;;;5072461;28;20033;-70
2021/12/01 00:58:02;;;;;;;11.82;7.85;;;;;;;;;;5054635;28;20464;-71
2021/12/01 01:00:28;;;;;;;10.95;7.78;;;;;;;;;;5072303;28;20123;-68
2021/12/01 01:02:56;;;;;;;10.68;7.85;;;;;;;;;;5074931;28;20039;-70
2021/12/01 01:05:21;;;;;;;12.70;7.95;;;;;;;;;;5075781;28;20067;-70
2021/12/01 01:07:47;;;;;;;12.70;8.13;;;;;;;;;;5074612;28;20545;-70
2021/12/01 01:18:31;;;;;;;10.98;7.20;;;;;;;;;;5075782;28;20090;-70
2021/12/01 01:20:57;;;;;;;9.95;7.53;;;;;;;;;;5075563;28;20053;-70
2021/12/01 01:23:24;;;;;;;13.50;8.25;;;;;;;;;;5075606;28;20035;-71
2021/12/01 01:25:51;;;;;;;12.00;8.13;;;;;;;;;;5075590;28;20032;-71
2021/12/01 01:28:17;;;;;;;9.80;6.78;;;;;;;;;;5041103;28;20392;-70
2021/12/01 01:30:42;;;;;;;9.45;6.80;;;;;;;;;;5075551;28;20041;-71
2021/12/01 01:33:07;;;;;;;11.65;7.68;;;;;;;;;;5075463;28;20116;-71
2021/12/01 01:35:33;;;;;;;12.23;7.40;;;;;;;;;;5075433;28;20033;-70
2021/12/01 01:37:58;;;;;;;10.88;6.65;;;;;;;;;;5075401;28;20459;-71
2021/12/01 01:40:24;;;;;;;12.45;6.25;;;;;;;;;;5057390;28;20045;-71
2021/12/01 01:42:49;;;;;;;8.52;5.40;;;;;;;;;;5057255;28;20480;-71
2021/12/01 01:45:16;;;;;;;11.15;6.72;;;;;;;;;;5073877;28;20098;-71
2021/12/01 01:48:05;;;;;;;9.38;5.57;;;;;;;;;;5075535;28;20037;-70
2021/12/01 01:50:35;;;;;;;12.15;5.00;;;;;;;;;;5075397;28;20041;-70
2021/12/01 01:53:06;;;;;;;8.48;5.18;;;;;;;;;;5074003;28;20094;-69
2021/12/01 01:55:32;;;;;;;11.40;5.43;;;;;;;;;;5073897;28;20085;-70
2021/12/01 01:57:58;;;;;;;9.25;5.50;;;;;;;;;;5075137;28;20032;-70
2021/12/01 02:00:23;;;;;;;8.32;4.45;;;;;;;;;;5073761;28;20047;-69
2021/12/01 02:02:50;;;;;;;9.18;5.40;;;;;;;;;;5075264;28;20041;-69
2021/12/01 02:05:15;;;;;;;8.88;4.82;;;;;;;;;;5075022;28;20078;-71
2021/12/01 02:07:42;;;;;;;12.43;5.30;;;;;;;;;;5073828;28;20036;-70
2021/12/01 02:10:08;;;;;;;9.40;6.00;;;;;;;;;;5073918;28;20045;-70
2021/12/01 02:12:33;;;;;;;8.52;5.38;;;;;;;;;;5074685;28;20025;-70
2021/12/01 02:14:59;;;;;;;7.93;4.68;;;;;;;;;;5073496;28;20047;-70
2021/12/01 02:17:24;;;;;;;10.13;4.97;;;;;;;;;;5074794;28;20186;-69
2021/12/01 02:19:53;;;;;;;8.07;5.07;;;;;;;;;;5075004;28;20036;-69
2021/12/01 02:22:19;;;;;;;14.18;4.95;;;;;;;;;;5056834;28;20098;-69
2021/12/01 02:24:46;;;;;;;7.15;4.95;;;;;;;;;;5074732;28;20024;-70
2021/12/01 02:27:12;;;;;;;8.38;5.00;;;;;;;;;;5073574;28;20151;-70
2021/12/01 02:29:37;;;;;;;10.18;5.20;;;;;;;;;;5074651;28;20372;-70
2021/12/01 02:32:02;;;;;;;10.93;5.38;;;;;;;;;;5074584;28;20025;-71
2021/12/01 02:34:31;;;;;;;14.68;5.88;;;;;;;;;;5074861;28;20514;-70
2021/12/01 02:36:58;;;;;;;9.50;4.88;;;;;;;;;;5074463;28;20037;-69
2021/12/01 02:39:24;;;;;;;9.32;4.72;;;;;;;;;;5074308;28;20045;-70
2021/12/01 02:42:00;;;;;;;7.63;4.43;;;;;;;;;;5073074;28;20032;-70
2021/12/01 02:44:26;;;;;;;8.52;4.75;;;;;;;;;;5074372;28;20149;-70
2021/12/01 02:46:52;;;;;;;6.63;4.18;;;;;;;;;;5074348;28;20063;-70
2021/12/01 02:49:21;;;;;;;11.32;4.47;;;;;;;;;;5073158;28;20063;-70
2021/12/01 02:51:48;;;;;;;7.57;4.90;;;;;;;;;;5074384;28;20086;-70
2021/12/01 02:54:14;;;;;;;7.00;4.53;;;;;;;;;;5074291;28;20039;-70
2021/12/01 02:56:44;;;;;;;8.15;4.28;;;;;;;;;;5073281;28;20036;-71
2021/12/01 02:59:09;;;;;;;;;;;;;;;;;;5074783;28;20062;-70
2021/12/01 03:01:34;;;;;;;7.40;4.77;;;;;;;;;;5074429;28;19913;-71
2021/12/01 03:04:00;;;;;;;8.68;4.57;;;;;;;;;;5073096;28;20754;-70
2021/12/01 03:06:26;;;;;;;7.50;4.47;;;;;;;;;;5074074;28;20165;-70
2021/12/01 03:08:52;;;;;;;9.20;4.43;;;;;;;;;;5039413;28;20032;-70
2021/12/01 03:11:17;;;;;;;6.65;3.83;;;;;;;;;;5072919;28;20035;-70
2021/12/01 03:13:43;;;;;;;6.88;4.25;;;;;;;;;;5056050;28;20067;-70
2021/12/01 03:16:08;;;;;;;7.10;3.40;;;;;;;;;;5055943;28;20111;-71
2021/12/01 03:18:34;;;;;;;6.57;4.10;;;;;;;;;;5073829;28;20037;-69
2021/12/01 03:21:00;;;;;;;8.60;4.00;;;;;;;;;;5073808;28;20027;-69
2021/12/01 03:23:26;;;;;;;8.85;4.05;;;;;;;;;;5072844;28;20048;-69
2021/12/01 03:25:52;;;;;;;6.78;3.92;;;;;;;;;;5073707;28;20060;-70
2021/12/01 03:28:18;;;;;;;14.70;4.13;;;;;;;;;;5072812;28;20106;-69
2021/12/01 03:30:44;;;;;;;5.70;3.80;;;;;;;;;;5073645;28;20113;-69
2021/12/01 03:33:11;;;;;;;5.55;3.85;;;;;;;;;;5073944;28;20416;-70
2021/12/01 03:35:38;;;;;;;5.93;4.15;;;;;;;;;;5055688;28;20041;-70
2021/12/01 03:38:03;;;;;;;6.90;3.50;;;;;;;;;;5073778;28;20047;-70
2021/12/01 03:40:28;;;;;;;10.02;4.28;;;;;;;;;;5072288;28;20028;-70
2021/12/01 03:42:54;;;;;;;8.07;3.95;;;;;;;;;;5072338;28;20036;-70
2021/12/01 03:45:19;;;;;;;6.30;3.70;;;;;;;;;;5073711;28;20089;-70
2021/12/01 03:47:45;;;;;;;8.48;3.80;;;;;;;;;;5073438;28;20115;-70
2021/12/01 03:50:11;;;;;;;7.57;3.42;;;;;;;;;;5073348;28;20028;-70
2021/12/01 03:52:36;;;;;;;4.95;3.38;;;;;;;;;;5073235;28;20098;-70
2021/12/01 03:55:03;;;;;;;6.68;3.33;;;;;;;;;;5072144;28;20526;-70
2021/12/01 03:57:28;;;;;;;6.10;2.97;;;;;;;;;;5073483;28;20058;-69
2021/12/01 03:59:53;;;;;;;5.75;3.10;;;;;;;;;;5071927;28;20453;-69
2021/12/01 04:02:19;;;;;;;6.07;3.17;;;;;;;;;;5070835;28;20040;-72
2021/12/01 04:04:44;;;;;;;5.70;2.88;;;;;;;;;;5069227;28;20035;-69
2021/12/01 04:07:10;;;;;;;4.40;2.58;;;;;;;;;;5068985;28;20484;-70
2021/12/01 04:09:36;;;;;;;6.38;2.88;;;;;;;;;;5069639;28;20020;-70
2021/12/01 04:12:02;;;;;;;6.57;2.90;;;;;;;;;;5069054;28;20507;-70
2021/12/01 04:14:27;;;;;;;5.00;3.00;;;;;;;;;;5067860;28;20123;-70
2021/12/01 04:16:53;;;;;;;5.60;3.25;;;;;;;;;;5068872;28;20045;-69
2021/12/01 04:19:18;;;;;;;4.65;2.83;;;;;;;;;;5068821;28;20040;-69
2021/12/01 04:21:44;;;;;;;4.53;3.13;;;;;;;;;;5068979;28;20221;-69
2021/12/01 04:24:09;;;;;;;4.43;2.53;;;;;;;;;;5050876;28;20025;-70
2021/12/01 04:26:35;;;;;;;6.47;2.67;;;;;;;;;;5067740;28;20028;-69
2021/12/01 04:29:02;;;;;;;5.47;3.20;;;;;;;;;;5067601;28;20369;-70
2021/12/01 04:31:31;;;;;;;5.78;3.03;;;;;;;;;;5050694;28;20085;-71
2021/12/01 04:33:57;;;;;;;5.32;3.10;;;;;;;;;;5068911;28;20063;-70
2021/12/01 04:36:27;;;;;;;4.10;2.50;;;;;;;;;;5068711;28;20040;-72
2021/12/01 04:38:53;;;;;;;5.90;2.75;;;;;;;;;;5068397;28;20920;-70
2021/12/01 04:41:19;;;;;;;5.20;2.65;;;;;;;;;;5068617;28;20161;-72
2021/12/01 04:43:46;;;;;;;6.55;2.83;;;;;;;;;;5067786;28;20473;-70
2021/12/01 04:46:16;;;;;;;4.10;2.60;;;;;;;;;;5068694;28;20072;-70
2021/12/01 04:48:41;;;;;;;4.95;2.75;;;;;;;;;;5068547;28;20442;-69
2021/12/01 04:51:06;;;;;;;5.82;2.80;;;;;;;;;;5068315;28;20029;-69
2021/12/01 04:53:32;;;;;;;5.38;2.83;;;;;;;;;;5068647;28;20054;-70
2021/12/01 04:55:58;;;;;;;5.22;2.78;;;;;;;;;;5068577;28;20047;-69
2021/12/01 04:58:23;;;;;;;5.10;2.22;;;;;;;;;;5068617;28;20042;-68
2021/12/01 05:00:49;;;;;;;6.82;3.15;;;;;;;;;;5068257;28;20479;-68
2021/12/01 05:03:14;;;;;;;5.57;3.00;;;;;;;;;;5068411;28;20480;-68
2021/12/01 05:05:39;;;;;;;6.30;2.80;;;;;;;;;;5068215;28;20042;-69
2021/12/01 05:08:05;;;;;;;6.43;2.83;;;;;;;;;;5068544;28;20100;-70
2021/12/01 05:10:30;;;;;;;5.78;2.85;;;;;;;;;;5068381;28;20436;-69
2021/12/01 05:12:56;;;;;;;7.13;2.80;;;;;;;;;;5068157;28;20036;-69
2021/12/01 05:15:22;;;;;;;4.78;2.72;;;;;;;;;;5068110;28;20044;-69
2021/12/01 05:17:49;;;;;;;6.43;2.65;;;;;;;;;;5068471;28;20066;-71
2021/12/01 05:20:15;;;;;;;5.10;2.90;;;;;;;;;;5068449;28;20566;-72
2021/12/01 05:22:42;;;;;;;6.05;3.05;;;;;;;;;;5050201;28;20392;-70
2021/12/01 05:25:09;;;;;;;4.97;3.00;;;;;;;;;;5066882;28;20040;-69
2021/12/01 05:27:36;;;;;;;4.00;2.70;;;;;;;;;;5068225;28;20029;-70
2021/12/01 05:30:02;;;;;;;5.25;2.85;;;;;;;;;;5067996;28;20048;-70
2021/12/01 05:32:27;;;;;;;6.13;3.20;;;;;;;;;;5068164;28;20032;-71
2021/12/01 05:34:53;;;;;;;7.20;3.58;;;;;;;;;;5066504;28;20046;-70
2021/12/01 05:37:18;;;;;;;5.50;3.42;;;;;;;;;;5067831;28;20108;-70
2021/12/01 05:39:45;;;;;;;8.10;3.67;;;;;;;;;;5067870;28;20384;-71
2021/12/01 05:42:12;;;;;;;8.20;3.72;;;;;;;;;;5067931;28;20039;-70
2021/12/01 05:44:38;;;;;;;10.27;3.88;;;;;;;;;;5067470;28;20036;-69
2021/12/01 05:47:04;;;;;;;5.50;3.50;;;;;;;;;;5067637;28;20036;-70
2021/12/01 05:49:29;;;;;;;5.38;3.40;;;;;;;;;;5071537;28;20147;-68
2021/12/01 05:51:54;;;;;;;7.82;3.97;;;;;;;;;;5070894;28;20044;-72
2021/12/01 05:54:20;;;;;;;6.20;3.00;;;;;;;;;;5071388;28;20041;-69
2021/12/01 05:56:45;;;;;;;7.43;3.65;;;;;;;;;;5070935;28;20056;-70
2021/12/01 05:59:11;;;;;;;6.55;3.95;;;;;;;;;;5071352;28;20438;-70
2021/12/01 06:01:36;;;;;;;6.93;3.40;;;;;;;;;;5070999;28;20135;-70
2021/12/01 06:04:02;;;;;;;7.95;3.60;;;;;;;;;;5071183;28;20040;-70
2021/12/01 06:06:28;;;;;;;6.65;3.08;;;;;;;;;;5071137;28;20067;-69
2021/12/01 06:08:53;;;;;;;5.63;3.38;;;;;;;;;;5070707;28;20037;-69
2021/12/01 06:11:20;;;;;;;6.18;3.63;;;;;;;;;;5070821;28;20049;-70
2021/12/01 06:13:45;;;;;;;5.60;3.20;;;;;;;;;;5070854;28;20487;-71
2021/12/01 06:16:11;;;;;;;10.35;4.15;;;;;;;;;;5070062;28;20082;-70
2021/12/01 06:18:36;;;;;;;9.10;3.40;;;;;;;;;;5069799;28;20120;-69
2021/12/01 06:21:02;;;;;;;5.78;3.60;;;;;;;;;;5070697;28;20377;-70
2021/12/01 06:23:28;;;;;;;6.57;3.45;;;;;;;;;;5070861;28;20357;-70
2021/12/01 06:25:53;;;;;;;10.38;3.65;;;;;;;;;;5070888;28;20062;-70
2021/12/01 06:28:19;;;;;;;8.05;3.55;;;;;;;;;;5070841;28;20040;-69
2021/12/01 06:30:44;;;;;;;5.72;3.03;;;;;;;;;;5070961;28;20032;-70
2021/12/01 06:33:10;;;;;;;7.10;3.22;;;;;;;;;;5070802;28;20472;-69
2021/12/01 06:35:36;;;;;;;9.05;3.22;;;;;;;;;;5070470;28;20507;-71
2021/12/01 06:38:02;;;;;;;9.38;3.60;;;;;;;;;;5070713;28;20025;-71
2021/12/01 06:40:28;;;;;;;4.97;3.38;;;;;;;;;;5069136;28;20155;-70
2021/12/01 06:42:54;;;;;;;6.07;3.50;;;;;;;;;;5070482;28;20111;-70
2021/12/01 06:45:19;;;;;;;6.90;3.33;;;;;;;;;;5070941;28;20375;-70
2021/12/01 06:47:45;;;;;;;8.20;3.88;;;;;;;;;;5070468;28;20476;-70
2021/12/01 06:50:11;;;;;;;5.43;3.05;;;;;;;;;;5070331;28;20119;-71
2021/12/01 06:52:38;;;;;;;4.85;3.17;;;;;;;;;;5069069;28;20123;-71
2021/12/01 06:55:04;;;;;;;7.22;3.45;;;;;;;;;;5070368;28;20395;-70
2021/12/01 06:57:29;;;;;;;8.20;3.35;;;;;;;;;;5068884;28;20029;-71
2021/12/01 06:59:55;;;;;;;7.03;3.15;;;;;;;;;;5068894;28;20102;-70
2021/12/01 07:02:20;;;;;;;7.60;3.75;;;;;;;;;;5069501;28;20037;-70
2021/12/01 07:04:46;;;;;;;7.35;3.50;;;;;;;;;;5070190;28;20044;-72
2021/12/01 07:07:12;;;;;;;9.57;3.97;;;;;;;;;;5070123;28;20024;-72
2021/12/01 07:09:37;;;;;;;7.40;3.90;;;;;;;;;;5070454;28;20017;-72
2021/12/01 07:12:03;;;;;;;6.95;3.85;;;;;;;;;;5069960;28;20028;-69
2021/12/01 07:14:28;;;;;;;5.50;3.90;;;;;;;;;;5068901;28;20079;-69
2021/12/01 07:16:54;;;;;;;9.75;3.60;;;;;;;;;;5069635;28;20051;-70
2021/12/01 07:19:19;;;;;;;7.80;4.03;;;;;;;;;;5069848;28;20035;-68
2021/12/01 07:21:45;;;;;;;10.25;4.30;;;;;;;;;;5069870;28;20044;-71
2021/12/01 07:24:10;;;;;;;9.68;4.00;;;;;;;;;;5069860;28;20078;-69
2021/12/01 07:26:36;;;;;;;11.68;4.75;;;;;;;;;;5069527;28;20055;-71
2021/12/01 07:29:02;;;;;;;5.97;3.60;;;;;;;;;;5069963;28;20036;-70
2021/12/01 07:31:27;;;;;;;7.43;3.72;;;;;;;;;;5069663;28;20040;-71
2021/12/01 07:33:53;;;;;;;9.00;3.70;;;;;;;;;;5069805;28;20528;-70
2021/12/01 07:36:18;;;;;;;8.20;3.95;;;;;;;;;;5069507;28;20044;-69
2021/12/01 07:38:44;;;;;;;9.18;5.10;;;;;;;;;;5069713;28;20036;-69
2021/12/01 07:41:09;;;;;;;9.55;5.15;;;;;;;;;;5069569;28;20467;-69
2021/12/01 07:43:35;;;;;;;11.25;4.82;;;;;;;;;;5069443;28;20036;-69
2021/12/01 07:46:03;;;;;;;9.45;4.50;;;;;;;;;;5069616;28;20060;-70
2021/12/01 07:48:29;;;;;;;9.07;4.60;;;;;;;;;;5082501;28;20384;-70
2021/12/01 07:50:55;;;;;;;10.90;4.95;;;;;;;;;;5089307;28;20031;-69
2021/12/01 07:53:22;;;;;;;8.63;4.82;;;;;;;;;;5083172;28;20030;-70
2021/12/01 07:55:47;;;;;;;12.00;5.53;;;;;;;;;;5068499;28;20358;-69
2021/12/01 07:58:13;;;;;;;9.20;4.82;;;;;;;;;;5089714;28;20082;-69
2021/12/01 08:00:38;;;;;;;15.20;4.78;;;;;;;;;;5087580;28;20043;-70
2021/12/01 08:03:04;;;;;;;9.60;4.30;;;;;;;;;;5089204;28;20031;-73
2021/12/01 08:05:30;;;;;;;9.57;4.65;;;;;;;;;;5095479;28;20046;-69
2021/12/01 08:07:56;;;;;;;10.43;4.75;;;;;;;;;;5083592;28;20120;-70
2021/12/01 08:10:21;;;;;;;7.90;4.10;;;;;;;;;;5068627;28;20033;-71
2021/12/01 08:12:47;;;;;;;8.55;4.07;;;;;;;;;;5068943;28;20020;-71
2021/12/01 08:15:12;;;;;;;9.70;3.80;;;;;;;;;;5068133;28;20066;-70
2021/12/01 08:17:38;;;;;;;7.55;3.78;;;;;;;;;;5068899;28;20718;-71
2021/12/01 08:20:04;;;;;;;8.52;3.75;;;;;;;;;;5068764;28;20119;-69
2021/12/01 08:22:29;;;;;;;7.72;3.55;;;;;;;;;;5067504;28;20039;-70
2021/12/01 08:24:57;;;;;;;6.63;3.30;;;;;;;;;;5067294;28;20028;-70
2021/12/01 08:27:23;;;;;;;9.32;3.53;;;;;;;;;;5067295;28;20617;-72
2021/12/01 08:29:48;;;;;;;12.63;3.95;;;;;;;;;;5065199;28;20025;-70
2021/12/01 08:32:14;;;;;;;9.20;3.50;;;;;;;;;;5066272;28;20029;-70
2021/12/01 08:34:39;;;;;;;6.78;3.08;;;;;;;;;;5065024;28;20096;-70
2021/12/01 08:37:10;;;;;;;6.20;2.88;;;;;;;;;;5064028;28;20197;-71
2021/12/01 08:39:35;;;;;;;7.47;3.30;;;;;;;;;;5065050;28;20149;-71
2021/12/01 08:42:01;;;;;;;6.95;3.05;;;;;;;;;;5066110;28;20123;-70
2021/12/01 08:44:26;;;;;;;7.28;2.97;;;;;;;;;;5064978;28;20048;-70
2021/12/01 08:46:52;;;;;;;6.65;3.80;;;;;;;;;;5066880;28;20051;-71
2021/12/01 08:49:17;;;;;;;7.25;2.70;;;;;;;;;;5076154;28;20048;-72
2021/12/01 08:51:43;;;;;;;6.78;3.03;;;;;;;;;;5087527;28;20028;-72
2021/12/01 08:54:13;;;;;;;6.88;2.45;;;;;;;;;;5087319;28;20523;-72
2021/12/01 08:56:39;;;;;;;7.13;3.13;;;;;;;;;;5086732;28;20084;-70
2021/12/01 08:59:04;;;;;;;7.53;3.35;;;;;;;;;;5088056;28;20020;-73
2021/12/01 09:01:30;;;;;;;6.32;2.90;;;;;;;;;;5086747;28;20371;-70
2021/12/01 09:03:55;;;;;;;5.60;2.47;;;;;;;;;;5086916;28;20048;-71
2021/12/01 09:06:21;;;;;;;6.97;2.90;;;;;;;;;;5087901;28;20410;-70
2021/12/01 09:08:46;;;;;;;6.45;2.47;;;;;;;;;;5086544;28;20039;-71
2021/12/01 09:11:12;;;;;;;3.90;2.28;;;;;;;;;;5085458;28;20377;-71
2021/12/01 09:13:37;;;;;;;7.57;2.50;;;;;;;;;;5058227;28;20036;-70
2021/12/01 09:16:03;;;;;;;5.10;2.30;;;;;;;;;;5078314;28;20023;-71
2021/12/01 09:18:29;;;;;;;3.50;2.15;;;;;;;;;;5079374;28;20032;-71
2021/12/01 09:20:55;;;;;;;5.97;3.13;;;;;;;;;;5084183;28;20149;-70
2021/12/01 09:23:21;;;;;;;6.75;2.67;;;;;;;;;;5077185;28;20083;-72
2021/12/01 09:25:47;;;;;;;4.97;2.60;;;;;;;;;;5068992;28;20040;-72
2021/12/01 09:28:14;;;;;;;5.10;2.58;;;;;;;;;;5084225;28;20360;-71
2021/12/01 09:30:39;;;;;;;6.45;2.55;;;;;;;;;;5075481;28;20120;-72
2021/12/01 09:33:04;;;;;;;7.40;2.72;;;;;;;;;;5069565;28;20115;-71
2021/12/01 09:35:30;;;;;;;9.60;3.20;;;;;;;;;;5069889;28;20040;-72
2021/12/01 09:37:56;;;;;;;7.90;2.80;;;;;;;;;;5077226;28;20077;-69
2021/12/01 09:40:21;;;;;;;6.15;3.05;;;;;;;;;;5070286;28;20048;-70
2021/12/01 09:42:49;;;;;;;9.07;3.30;;;;;;;;;;5069019;28;20086;-70
2021/12/01 09:45:16;;;;;;;6.18;3.10;;;;;;;;;;5076541;28;20045;-72
2021/12/01 09:47:41;;;;;;;7.15;3.25;;;;;;;;;;5069302;28;20037;-70
2021/12/01 09:50:07;;;;;;;7.97;3.47;;;;;;;;;;5069228;28;20356;-69
2021/12/01 09:52:33;;;;;;;5.68;3.63;;;;;;;;;;5069422;28;20086;-71
2021/12/01 09:55:03;;;;;;;6.13;3.35;;;;;;;;;;5069141;28;20090;-70
2021/12/01 09:57:28;;;;;;;7.03;3.42;;;;;;;;;;5067031;28;20035;-70
2021/12/01 09:59:54;;;;;;;8.15;3.50;;;;;;;;;;5077115;28;20045;-70
2021/12/01 10:02:21;;;;;;;7.95;3.00;;;;;;;;;;5070450;28;20449;-69
2021/12/01 10:04:47;;;;;;;6.18;3.35;;;;;;;;;;5067763;28;20043;-69
2021/12/01 10:07:14;;;;;;;6.63;3.20;;;;;;;;;;5069283;28;20131;-68
2021/12/01 10:09:43;;;;;;;6.75;4.32;;;;;;;;;;5070512;28;20055;-69
2021/12/01 10:12:09;;;;;;;10.52;4.35;;;;;;;;;;5070026;28;20040;-72
2021/12/01 10:14:34;;;;;;;6.40;3.47;;;;;;;;;;5070268;28;20499;-72
2021/12/01 10:17:00;;;;;;;7.40;3.28;;;;;;;;;;5070391;28;20040;-71
2021/12/01 10:19:25;;;;;;;7.18;3.05;;;;;;;;;;5070096;28;20048;-70
2021/12/01 10:21:51;;;;;;;6.63;3.38;;;;;;;;;;5073725;28;20032;-69
2021/12/01 10:24:24;;;;;;;17.98;9.55;;;;;;;;;;5074529;28;20048;-72
2021/12/01 10:26:50;;;;;;;58.00;29.67;;;;;;;;;;5083507;28;20683;-71
2021/12/01 10:29:18;;;;;;;23.55;14.85;;;;;;;;;;5070496;28;20423;-70
2021/12/01 10:31:45;;;;;;;14.45;10.20;;;;;;;;;;5070260;28;20041;-70
2021/12/01 10:34:19;;;;;;;7.40;4.80;;;;;;;;;;5070260;28;20029;-70
2021/12/01 10:36:45;;;;;;;8.70;3.92;;;;;;;;;;5070196;28;20043;-69
2021/12/01 10:39:11;;;;;;;7.60;3.70;;;;;;;;;;5052571;28;20490;-69
2021/12/01 10:41:38;;;;;;;8.50;3.80;;;;;;;;;;5069702;28;20064;-69
2021/12/01 10:44:13;;;;;;;8.18;3.38;;;;;;;;;;5070111;28;20036;-69
2021/12/01 10:46:43;;;;;;;7.00;3.47;;;;;;;;;;5070046;28;20044;-71
2021/12/01 10:49:09;;;;;;;11.80;3.67;;;;;;;;;;5070123;28;20029;-68
2021/12/01 10:51:35;;;;;;;12.50;4.35;;;;;;;;;;5070185;28;20039;-69
2021/12/01 10:54:01;;;;;;;6.68;3.40;;;;;;;;;;5069647;28;20078;-69
2021/12/01 10:56:26;;;;;;;7.13;3.45;;;;;;;;;;5050411;28;21123;-70
2021/12/01 10:58:51;;;;;;;7.78;3.55;;;;;;;;;;5067634;28;20049;-70
2021/12/01 11:01:21;;;;;;;6.20;3.08;;;;;;;;;;5066112;28;20140;-70
2021/12/01 11:03:47;;;;;;;;;;;;;;;;;;5067160;28;20117;-70
2021/12/01 11:06:21;;;;;;;7.82;3.45;;;;;;;;;;5069165;28;20279;-70
2021/12/01 11:08:48;;;;;;;5.72;2.97;;;;;;;;;;5050294;28;20389;-70
2021/12/01 11:11:17;;;;;;;10.73;3.45;;;;;;;;;;5069451;28;20051;-70
2021/12/01 11:13:44;;;;;;;5.40;3.05;;;;;;;;;;5072684;28;20926;-70
2021/12/01 11:16:13;;;;;;;7.35;3.30;;;;;;;;;;5069595;28;20033;-71
2021/12/01 11:18:39;;;;;;;5.67;2.50;;;;;;;;;;5052142;28;20043;-71
2021/12/01 11:21:07;;;;;;;7.97;3.33;;;;;;;;;;5069262;28;20029;-69
2021/12/01 11:23:34;;;;;;;8.02;3.50;;;;;;;;;;5069545;28;20383;-70
2021/12/01 11:26:04;;;;;;;10.05;3.10;;;;;;;;;;5069710;28;20127;-71
2021/12/01 11:28:32;;;;;;;7.25;3.28;;;;;;;;;;5067976;28;20036;-70
2021/12/01 11:30:59;;;;;;;6.07;3.10;;;;;;;;;;5082256;28;20040;-70
2021/12/01 11:33:25;;;;;;;9.35;5.18;;;;;;;;;;5086626;28;20032;-71
2021/12/01 11:35:53;;;;;;;7.65;3.33;;;;;;;;;;5087224;28;20051;-72
2021/12/01 11:38:18;;;;;;;8.13;3.65;;;;;;;;;;5074116;28;20029;-70
2021/12/01 11:40:44;;;;;;;9.35;3.47;;;;;;;;;;5080130;28;20048;-72
2021/12/01 11:43:11;;;;;;;8.80;4.50;;;;;;;;;;5086245;28;20044;-70
2021/12/01 11:45:38;;;;;;;10.07;4.20;;;;;;;;;;5088831;28;20032;-70
2021/12/01 11:48:04;;;;;;;7.97;4.38;;;;;;;;;;5089393;28;20063;-70
2021/12/01 11:50:32;;;;;;;9.25;4.40;;;;;;;;;;5089661;28;20047;-70
2021/12/01 11:53:14;;;;;;;8.32;4.15;;;;;;;;;;5088700;28;20387;-70
2021/12/01 11:55:47;;;;;;;8.88;4.60;;;;;;;;;;5089283;28;20086;-69
2021/12/01 11:58:33;;;;;;;10.55;4.50;;;;;;;;;;5088294;28;20042;-71
2021/12/01 12:00:58;;;;;;;9.73;5.65;;;;;;;;;;5088891;28;20036;-72
2021/12/01 12:03:25;;;;;;;9.90;4.47;;;;;;;;;;5088781;28;20182;-70
2021/12/01 12:06:09;;;;;;;7.25;4.18;;;;;;;;;;5089158;28;20036;-70
2021/12/01 12:08:53;;;;;;;10.55;5.75;;;;;;;;;;5088818;28;20054;-70
2021/12/01 12:11:37;;;;;;;8.55;5.43;;;;;;;;;;5088633;28;20055;-70
2021/12/01 12:14:02;;;;;;;13.00;5.30;;;;;;;;;;5088647;28;20028;-70
2021/12/01 12:16:28;;;;;;;9.90;5.07;;;;;;;;;;5088604;28;20363;-70
2021/12/01 12:18:53;;;;;;;10.32;5.57;;;;;;;;;;5089271;28;20391;-70
2021/12/01 12:21:48;;;;;;;8.40;5.22;;;;;;;;;;5087176;28;20074;-70
2021/12/01 12:24:12;;;;;;;8.88;4.90;;;;;;;;;;5088247;28;20048;-71
2021/12/01 12:26:41;;;;;;;10.13;4.50;;;;;;;;;;5088889;28;20028;-70
2021/12/01 12:29:09;;;;;;;9.90;4.97;;;;;;;;;;5086477;28;20384;-70
2021/12/01 12:31:34;;;;;;;8.98;5.07;;;;;;;;;;5089105;28;20052;-70
2021/12/01 12:34:03;;;;;;;8.35;4.90;;;;;;;;;;5088100;28;20028;-70
2021/12/01 12:36:49;;;;;;;11.90;5.30;;;;;;;;;;5088679;28;20432;-70
2021/12/01 12:39:16;;;;;;;8.00;4.53;;;;;;;;;;5088393;28;20399;-70
2021/12/01 12:41:58;;;;;;;8.18;4.60;;;;;;;;;;5088589;28;20035;-71
2021/12/01 12:44:26;;;;;;;10.88;5.90;;;;;;;;;;5087722;28;20401;-72
2021/12/01 12:47:01;;;;;;;9.43;5.22;;;;;;;;;;5088328;28;20032;-71
2021/12/01 12:49:35;;;;;;;8.60;5.35;;;;;;;;;;5087277;28;20380;-73
2021/12/01 12:52:21;;;;;;;14.63;5.80;;;;;;;;;;5088132;28;20391;-72
2021/12/01 12:54:46;;;;;;;8.88;5.57;;;;;;;;;;5088261;28;20040;-70
2021/12/01 12:57:13;;;;;;;12.95;5.88;;;;;;;;;;5087258;28;20391;-70
2021/12/01 12:59:39;;;;;;;10.43;5.03;;;;;;;;;;5088220;28;20476;-70
2021/12/01 13:02:07;;;;;;;10.73;5.45;;;;;;;;;;5087790;28;20085;-71
2021/12/01 13:04:52;;;;;;;9.52;5.43;;;;;;;;;;5085346;28;20031;-71
2021/12/01 13:07:38;;;;;;;13.80;6.47;;;;;;;;;;5087114;28;20499;-70
2021/12/01 13:10:09;;;;;;;13.38;7.82;;;;;;;;;;5087911;28;20400;-70
2021/12/01 13:12:45;;;;;;;15.88;9.05;;;;;;;;;;5088157;28;20036;-72
2021/12/01 13:15:17;;;;;;;12.23;7.03;;;;;;;;;;5087841;28;20036;-70
2021/12/01 13:17:50;;;;;;;12.23;7.00;;;;;;;;;;5087171;28;20132;-71
2021/12/01 13:20:19;;;;;;;13.38;8.13;;;;;;;;;;5088116;28;20116;-69
2021/12/01 13:23:04;;;;;;;10.02;7.93;;;;;;;;;;5087799;28;20054;-71
2021/12/01 13:25:29;;;;;;;12.77;5.75;;;;;;;;;;5087411;28;20042;-69
2021/12/01 13:27:55;;;;;;;9.25;6.10;;;;;;;;;;5071311;28;20013;-70
2021/12/01 13:30:20;;;;;;;8.60;5.35;;;;;;;;;;5068075;28;20112;-72
2021/12/01 13:33:04;;;;;;;10.05;5.68;;;;;;;;;;5067860;28;20033;-70
2021/12/01 13:35:29;;;;;;;13.93;5.50;;;;;;;;;;5067681;28;20158;-70
2021/12/01 13:37:58;;;;;;;12.32;6.53;;;;;;;;;;5067797;28;20036;-70
2021/12/01 13:40:27;;;;;;;10.48;5.88;;;;;;;;;;5067863;28;20028;-70
2021/12/01 13:42:53;;;;;;;16.48;7.00;;;;;;;;;;5067276;28;20085;-70
2021/12/01 13:45:18;;;;;;;11.70;6.63;;;;;;;;;;5067886;28;20040;-70
2021/12/01 13:47:44;;;;;;;11.43;6.72;;;;;;;;;;5067849;28;20530;-70
2021/12/01 13:50:10;;;;;;;13.40;7.45;;;;;;;;;;5067621;28;20395;-70
2021/12/01 13:52:35;;;;;;;12.45;7.53;;;;;;;;;;5067425;28;20056;-70
2021/12/01 13:55:21;;;;;;;11.88;7.90;;;;;;;;;;5067755;28;20131;-70
2021/12/01 13:57:49;;;;;;;11.45;7.57;;;;;;;;;;5067372;28;20128;-69
2021/12/01 14:00:15;;;;;;;11.75;7.72;;;;;;;;;;5067440;28;20032;-70
2021/12/01 14:02:42;;;;;;;10.95;8.70;;;;;;;;;;5067740;28;20028;-69
2021/12/01 14:05:08;;;;;;;11.05;8.45;;;;;;;;;;5067458;28;20083;-71
2021/12/01 14:07:46;;;;;;;10.82;7.63;;;;;;;;;;5067677;28;20048;-70
2021/12/01 14:10:20;;;;;;;14.52;8.80;;;;;;;;;;5069486;28;20033;-71
2021/12/01 14:12:53;;;;;;;13.27;8.70;;;;;;;;;;5069925;28;20045;-70
2021/12/01 14:15:19;;;;;;;10.60;8.25;;;;;;;;;;5052818;28;20507;-70
2021/12/01 14:17:45;;;;;;;12.75;10.65;;;;;;;;;;5070218;28;20078;-72
2021/12/01 14:20:13;;;;;;;13.23;9.45;;;;;;;;;;5070802;28;20120;-70
2021/12/01 14:22:38;;;;;;;13.23;9.23;;;;;;;;;;5070469;28;20036;-71
2021/12/01 14:25:04;;;;;;;10.98;8.80;;;;;;;;;;5070589;28;20021;-70
2021/12/01 14:27:30;;;;;;;11.25;8.68;;;;;;;;;;5070527;28;20365;-70
2021/12/01 14:30:00;;;;;;;13.38;9.60;;;;;;;;;;5070828;28;20039;-71
2021/12/01 14:32:26;;;;;;;15.90;8.57;;;;;;;;;;5070386;28;20787;-70
2021/12/01 14:34:52;;;;;;;13.73;9.77;;;;;;;;;;5070672;28;20024;-70
2021/12/01 14:37:17;;;;;;;14.13;11.40;;;;;;;;;;5070522;28;20094;-70
2021/12/01 14:39:43;;;;;;;14.90;10.13;;;;;;;;;;5070296;28;20040;-70
2021/12/01 14:42:08;;;;;;;18.77;12.40;;;;;;;;;;5070492;28;20400;-69
2021/12/01 14:44:38;;;;;;;14.73;8.98;;;;;;;;;;5070113;28;20033;-70
2021/12/01 14:47:08;;;;;;;17.77;11.93;;;;;;;;;;5070088;28;20090;-69